This is the latest recevied weather packets stored in our database for station/object W5CRT. If no packets are shown the sender has not sent any weather packets the latest 10 day(s).
| Time | Temp. | Humidity | Pressure | Rain* | Wind** | Luminosity | Snow |
|---|---|---|---|---|---|---|---|
| 1778107308 | 15° C | 80% | 1012.1 hPa | 0 mm | - | 126 W/m² | - |
| 1778107005 | 14.44° C | 82% | 1012 hPa | 0 mm | - | 115 W/m² | - |
| 1778106700 | 14.44° C | 81% | 1012.1 hPa | 0 mm | - | 134 W/m² | - |
| 1778106398 | 14.44° C | 82% | 1012.1 hPa | 0 mm | - | 103 W/m² | - |
| 1778106094 | 14.44° C | 81% | 1012 hPa | 0 mm | - | 107 W/m² | - |
| 1778105792 | 14.44° C | 81% | 1011.8 hPa | 0 mm | - | 113 W/m² | - |
| 1778105490 | 14.44° C | 81% | 1012 hPa | 0 mm | - | 128 W/m² | - |
| 1778105186 | 14.44° C | 81% | 1011.9 hPa | 0 mm | - | 118 W/m² | - |
| 1778104881 | 14.44° C | 81% | 1011.6 hPa | 0 mm | - | 120 W/m² | - |
| 1778104578 | 14.44° C | 81% | 1011.7 hPa | 0 mm | - | 120 W/m² | - |
| 1778104273 | 14.44° C | 82% | 1011.9 hPa | 0 mm | - | 133 W/m² | - |
| 1778103971 | 14.44° C | 80% | 1011.7 hPa | 0 mm | - | 147 W/m² | - |
| 1778103668 | 14.44° C | 81% | 1011.6 hPa | 0 mm | - | 155 W/m² | - |
| 1778103366 | 14.44° C | 81% | 1011.7 hPa | 0 mm | - | 160 W/m² | - |
| 1778103063 | 14.44° C | 81% | 1011.9 hPa | 0 mm | - | 180 W/m² | - |
| 1778102760 | 14.44° C | 82% | 1011.7 hPa | 0 mm | - | 180 W/m² | - |
| 1778102454 | 14.44° C | 80% | 1011.9 hPa | 0 mm | - | 172 W/m² | - |
| 1778102151 | 15° C | 80% | 1012 hPa | 0 mm | - | 130 W/m² | - |
| 1778101848 | 15.56° C | 77% | 1011.7 hPa | 0 mm | - | 233 W/m² | - |
| 1778101544 | 15.56° C | 80% | 1011.8 hPa | 0 mm | - | 326 W/m² | - |
| 1778101241 | 15° C | 80% | 1011.8 hPa | 0 mm | - | 351 W/m² | - |
| 1778100938 | 15° C | 80% | 1011.9 hPa | 0 mm | - | 322 W/m² | - |
| 1778100633 | 15° C | 78% | 1012.3 hPa | 0 mm | - | 221 W/m² | - |
| 1778100331 | 15.56° C | 79% | 1011.7 hPa | 0 mm | - | 433 W/m² | - |
| 1778100028 | 15° C | 79% | 1011.8 hPa | 0 mm | - | 428 W/m² | - |
* Rain latest hour (hover to see other rain measurements)
** Current wind speed in m/s (hover to see current wind gust speed)